Humidity-temperature Sensor

Selected Measurement Type: Air Temperature

 
Air Temperature [°C]     6 entries per hour
Showing data from 9/20/2018 (00:00:00 Z) to 9/19/2018 (00:01:00 Z)
Previous Next [ Day | 3-Days | 7-Days ]
First Last
Prev [ Day | 3-Days | 7-Days ] Next
First Last

Start Time:     :
End Time:     :     
Time (in GMT) :00 :50 :40 :30 :20 :10
Previous Next [ Day | 3-Days | 7-Days ]
First Last
Prev [ Day | 3-Days | 7-Days ] Next
First Last


123 => good data
MM => data is determined as missing
-- => data not received/configured
Back to Top Back to Top
9/20/2018 00:00 to 23:10 25.24 25.24 25.27 25.30 25.26 25.45
9/19/2018 23:00 to 22:10 25.39 25.22 25.27 25.40 25.29 25.31
9/19/2018 22:00 to 21:10 25.18 25.25 25.20 25.24 25.12 25.24
9/19/2018 21:00 to 20:10 25.08 25.17 25.04 25.16 25.20 25.12
9/19/2018 20:00 to 19:10 25.16 25.24 25.25 25.16 25.27 25.19
9/19/2018 19:00 to 18:10 25.11 25.14 25.13 25.06 24.96 25.13
9/19/2018 18:00 to 17:10 25.14 25.14 25.29 25.24 25.30 25.25
9/19/2018 17:00 to 16:10 25.33 25.26 25.29 25.34 25.29 25.25
9/19/2018 16:00 to 15:10 25.27 25.22 25.35 25.19 25.12 25.03
9/19/2018 15:00 to 14:10 25.00 24.83 25.02 25.08 24.88 24.75
9/19/2018 14:00 to 13:10 24.60 24.18 23.97 24.06 24.01 24.40
9/19/2018 13:00 to 12:10 24.85 24.62 24.96 24.96 24.25 25.21
9/19/2018 12:00 to 11:10 25.06 24.89 24.72 25.06 24.99 24.71
9/19/2018 11:00 to 10:10 25.02 24.68 24.79 24.80 24.56 24.57
9/19/2018 10:00 to 9:10 24.49 24.48 24.85 24.70 24.82 24.76
9/19/2018 09:00 to 8:10 24.82 24.86 24.81 24.93 24.82 24.88
9/19/2018 08:00 to 7:10 24.89 25.04 24.87 24.88 24.86 24.89
9/19/2018 07:00 to 6:10 24.91 24.80 24.92 25.04 24.70 24.98
9/19/2018 06:00 to 5:10 24.93 25.00 25.05 24.92 24.76 24.78
9/19/2018 05:00 to 4:10 24.65 24.68 24.82 24.79 24.74 24.72
9/19/2018 04:00 to 3:10 24.50 24.29 24.09 23.70 23.42 23.38
9/19/2018 03:00 to 2:10 23.55 24.05 24.37 24.98 24.89 24.67
9/19/2018 02:00 to 1:10 24.91 24.79 24.89 25.08 24.96 24.89
9/19/2018 01:00 to 0:10 24.85 24.91 24.84 24.84 24.80 24.88